Time;durP1;ratioP1;P1;durP2;ratioP2;P2;SDS_P1;SDS_P2;PMS_P1;PMS_P2;Temp;Humidity;BMP_temperature;BMP_pressure;BME280_temperature;BME280_humidity;BME280_pressure;Samples;Min_cycle;Max_cycle;Signal;HPM_P1;HPM_P2
2022/08/09 00:01:56;;;;;;;4.50;1.80;;;19.20;1.00;;;;;;7385990;19;20014;-69
2022/08/09 00:04:26;;;;;;;5.95;1.73;;;19.20;1.00;;;;;;7361655;19;20015;-69
2022/08/09 00:07:05;;;;;;;2.20;1.60;;;19.30;1.00;;;;;;7357179;19;20018;-69
2022/08/09 00:09:42;;;;;;;2.25;1.50;;;19.40;1.00;;;;;;7363081;19;20007;-69
2022/08/09 00:12:13;;;;;;;3.25;1.60;;;19.30;1.00;;;;;;7364669;19;20071;-69
2022/08/09 00:14:52;;;;;;;3.13;1.65;;;19.30;1.00;;;;;;7369266;19;20014;-70
2022/08/09 00:17:26;;;;;;;2.67;1.50;;;19.30;1.00;;;;;;7364785;19;20015;-69
2022/08/09 00:20:16;;;;;;;7.00;1.50;;;19.40;1.00;;;;;;7368455;19;20017;-69
2022/08/09 00:22:47;;;;;;;3.50;1.98;;;19.30;1.00;;;;;;7392851;19;20033;-69
2022/08/09 00:25:19;;;;;;;2.72;1.60;;;19.20;1.00;;;;;;7368630;19;20016;-70
2022/08/09 00:28:00;;;;;;;3.28;1.60;;;19.20;1.00;;;;;;7367532;19;20034;-70
2022/08/09 00:30:33;;;;;;;3.55;1.90;;;19.20;1.00;;;;;;7370476;19;20011;-69
2022/08/09 00:33:04;;;;;;;3.67;2.00;;;19.10;1.00;;;;;;7368195;19;20023;-68
2022/08/09 00:35:34;;;;;;;5.57;1.85;;;19.10;1.00;;;;;;7371564;19;20014;-69
2022/08/09 00:38:12;;;;;;;4.47;2.03;;;19.10;1.00;;;;;;7368811;19;20319;-70
2022/08/09 00:40:46;;;;;;;7.75;2.20;;;19.00;1.00;;;;;;7389811;19;20010;-70
2022/08/09 00:43:22;;;;;;;3.38;1.77;;;18.90;1.00;;;;;;7366928;19;20018;-70
2022/08/09 00:46:12;;;;;;;2.10;1.50;;;18.90;1.00;;;;;;7368314;19;20010;-69
2022/08/09 00:49:02;;;;;;;5.20;1.83;;;18.70;1.00;;;;;;7370389;19;20021;-69
2022/08/09 00:51:32;;;;;;;2.35;1.85;;;18.60;1.00;;;;;;7369460;19;20006;-69
2022/08/09 00:54:22;;;;;;;3.22;1.70;;;18.60;1.00;;;;;;7367035;19;20010;-69
2022/08/09 00:57:07;;;;;;;3.28;1.48;;;18.60;1.00;;;;;;7364176;19;20011;-69
2022/08/09 00:59:40;;;;;;;3.42;1.50;;;18.70;1.00;;;;;;7369434;19;20605;-69
2022/08/09 01:02:21;;;;;;;4.28;1.80;;;18.70;1.00;;;;;;7369802;19;20014;-69
2022/08/09 01:04:59;;;;;;;3.28;1.80;;;18.80;1.00;;;;;;7389529;19;20006;-70
2022/08/09 01:07:39;;;;;;;3.25;2.00;;;18.70;1.00;;;;;;7362230;19;20311;-71
2022/08/09 01:10:38;;;;;;;4.57;1.98;;;18.70;1.00;;;;;;7369097;19;20006;-69
2022/08/09 01:13:19;;;;;;;5.15;1.90;;;18.60;1.00;;;;;;7364404;19;20011;-69
2022/08/09 01:15:53;;;;;;;2.47;1.88;;;18.50;1.00;;;;;;7368955;19;20010;-70
2022/08/09 01:18:28;;;;;;;2.40;1.48;;;18.60;1.00;;;;;;7364526;19;20014;-70
2022/08/09 01:21:16;;;;;;;6.05;1.83;;;18.60;1.00;;;;;;7366983;19;20080;-69
2022/08/09 01:23:56;;;;;;;2.75;1.80;;;18.70;1.00;;;;;;7365286;19;20478;-69
2022/08/09 01:26:48;;;;;;;2.88;1.77;;;18.70;1.00;;;;;;7363985;19;21446;-69
2022/08/09 01:29:33;;;;;;;2.35;1.70;;;18.70;1.00;;;;;;7369774;19;20017;-69
2022/08/09 01:32:31;;;;;;;5.45;1.77;;;18.60;1.00;;;;;;7368754;19;20017;-70
2022/08/09 01:35:06;;;;;;;2.10;1.90;;;18.50;1.00;;;;;;7387489;19;20022;-68
2022/08/09 01:38:00;;;;;;;2.28;1.58;;;18.50;1.00;;;;;;7363792;19;20011;-69
2022/08/09 01:40:48;;;;;;;1.98;1.45;;;18.50;1.00;;;;;;7367143;19;20014;-68
2022/08/09 01:43:26;;;;;;;2.33;1.75;;;18.40;1.00;;;;;;7361641;19;20017;-69
2022/08/09 01:46:00;;;;;;;2.15;1.52;;;18.30;1.00;;;;;;7370149;19;20021;-69
2022/08/09 01:48:32;;;;;;;3.42;1.63;;;18.20;1.00;;;;;;7369798;19;20014;-69
2022/08/09 01:51:07;;;;;;;4.25;1.75;;;18.30;1.00;;;;;;7371897;19;20022;-69
2022/08/09 01:53:40;;;;;;;4.85;2.00;;;18.20;1.00;;;;;;7370529;19;20030;-69
2022/08/09 01:56:11;;;;;;;3.53;1.90;;;18.30;1.00;;;;;;7370536;19;20025;-70
2022/08/09 01:58:47;;;;;;;2.35;1.70;;;18.20;1.00;;;;;;7392945;19;20011;-68
2022/08/09 02:01:19;;;;;;;3.35;1.88;;;18.10;1.00;;;;;;7367458;19;20049;-69
2022/08/09 02:04:12;;;;;;;2.85;1.70;;;18.10;1.00;;;;;;7369562;19;20014;-69
2022/08/09 02:09:33;;;;;;;2.67;1.52;;;18.10;1.00;;;;;;7370320;19;20350;-69
2022/08/09 02:12:13;;;;;;;4.28;1.80;;;18.10;1.00;;;;;;7370180;19;20017;-69
2022/08/09 02:14:54;;;;;;;3.70;1.85;;;18.00;1.00;;;;;;7369520;19;20018;-69
2022/08/09 02:17:28;;;;;;;3.92;1.80;;;17.90;1.00;;;;;;7368472;19;20041;-69
2022/08/09 02:20:18;;;;;;;2.83;1.77;;;17.90;1.00;;;;;;7370202;19;20015;-69
2022/08/09 02:22:59;;;;;;;2.38;1.65;;;17.80;1.00;;;;;;7392578;19;20015;-68
2022/08/09 02:25:32;;;;;;;3.72;2.00;;;17.80;1.00;;;;;;7370844;19;20010;-69
2022/08/09 02:28:18;;;;;;;4.30;2.05;;;17.90;1.00;;;;;;7369380;19;20010;-69
2022/08/09 02:30:52;;;;;;;;;;;17.90;1.00;;;;;;7370091;19;20030;-69
2022/08/09 02:33:27;;;;;;;7.40;3.00;;;17.80;1.00;;;;;;7369930;19;20323;-68
2022/08/09 02:36:22;;;;;;;6.45;2.85;;;17.80;1.00;;;;;;7368506;19;20007;-68
2022/08/09 02:38:57;;;;;;;9.68;3.17;;;17.70;1.00;;;;;;7369340;19;20011;-68
2022/08/09 02:41:34;;;;;;;6.95;3.00;;;17.70;1.00;;;;;;7367519;19;20042;-68
2022/08/09 02:44:08;;;;;;;4.85;2.10;;;17.60;1.00;;;;;;7392269;19;20045;-68
2022/08/09 02:47:05;;;;;;;3.88;2.20;;;17.50;1.00;;;;;;7368690;19;20003;-68
2022/08/09 02:49:43;;;;;;;5.78;2.20;;;17.50;1.00;;;;;;7368379;19;20030;-69
2022/08/09 02:52:17;;;;;;;5.00;2.58;;;17.40;1.00;;;;;;7369360;19;20006;-69
2022/08/09 02:54:48;;;;;;;3.50;2.28;;;17.50;1.00;;;;;;7368768;19;20027;-69
2022/08/09 02:57:24;;;;;;;3.63;2.08;;;17.50;1.00;;;;;;7368554;19;20014;-69
2022/08/09 02:59:56;;;;;;;3.38;2.60;;;17.50;1.00;;;;;;7367808;19;20520;-69
2022/08/09 03:02:53;;;;;;;4.70;2.00;;;17.40;1.00;;;;;;7369700;19;20015;-69
2022/08/09 03:05:32;;;;;;;4.60;1.92;;;17.30;1.00;;;;;;7368415;19;20499;-68
2022/08/09 03:08:18;;;;;;;2.78;1.80;;;17.10;1.00;;;;;;7368934;19;20010;-68
2022/08/09 03:10:49;;;;;;;4.28;1.98;;;17.10;1.00;;;;;;7390425;19;20007;-67
2022/08/09 03:13:22;;;;;;;2.72;1.90;;;17.10;1.00;;;;;;7368309;19;20086;-68
2022/08/09 03:16:17;;;;;;;4.40;1.95;;;17.10;1.00;;;;;;7368012;19;20007;-70
2022/08/09 03:18:52;;;;;;;3.72;1.90;;;17.00;1.00;;;;;;7367658;19;20533;-69
2022/08/09 03:21:25;;;;;;;2.97;2.22;;;17.10;1.00;;;;;;7368045;19;20003;-68
2022/08/09 03:24:06;;;;;;;6.90;2.25;;;17.00;1.00;;;;;;7369728;19;20098;-69
2022/08/09 03:26:39;;;;;;;2.72;1.98;;;17.10;1.00;;;;;;7366944;19;20342;-69
2022/08/09 03:29:16;;;;;;;7.18;2.20;;;17.00;1.00;;;;;;7368568;19;20010;-68
2022/08/09 03:31:52;;;;;;;4.78;1.80;;;17.00;1.00;;;;;;7389784;19;20015;-67
2022/08/09 03:34:32;;;;;;;5.28;1.95;;;16.90;1.00;;;;;;7367576;19;20010;-69
2022/08/09 03:37:02;;;;;;;5.28;2.55;;;16.90;1.00;;;;;;7366248;19;20096;-68
2022/08/09 03:39:52;;;;;;;6.97;2.78;;;16.90;1.00;;;;;;7366327;19;20354;-68
2022/08/09 03:42:25;;;;;;;4.85;2.55;;;16.90;1.00;;;;;;7366769;19;20011;-68
2022/08/09 03:44:59;;;;;;;4.45;2.75;;;17.00;1.00;;;;;;7367620;19;20025;-68
2022/08/09 03:47:29;;;;;;;6.32;2.53;;;17.00;1.00;;;;;;7366739;19;20027;-68
2022/08/09 03:50:13;;;;;;;3.83;2.42;;;17.00;1.00;;;;;;7391202;19;20014;-69
2022/08/09 03:52:59;;;;;;;3.70;2.45;;;16.90;1.00;;;;;;7399123;19;20021;-69
2022/08/09 03:55:32;;;;;;;5.60;2.60;;;16.90;1.00;;;;;;7374819;19;20360;-69
2022/08/09 03:58:05;;;;;;;11.70;4.32;;;17.00;1.00;;;;;;7374058;19;20007;-69
2022/08/09 04:00:46;;;;;;;3.90;2.20;;;17.10;1.00;;;;;;7373608;19;20482;-69
2022/08/09 04:03:18;;;;;;;3.92;2.17;;;16.90;1.00;;;;;;7376113;19;20006;-69
2022/08/09 04:06:10;;;;;;;7.45;2.15;;;16.90;1.00;;;;;;7373576;19;20015;-67
2022/08/09 04:08:40;;;;;;;3.13;2.05;;;16.80;1.00;;;;;;7374130;19;20024;-68
2022/08/09 04:11:15;;;;;;;3.58;2.20;;;16.70;1.00;;;;;;7374997;19;20477;-69
2022/08/09 04:13:45;;;;;;;3.72;2.38;;;16.70;1.00;;;;;;7396538;19;20037;-68
2022/08/09 04:16:35;;;;;;;4.35;1.92;;;16.70;1.00;;;;;;7373619;19;20010;-68
2022/08/09 04:19:04;;;;;;;5.45;2.53;;;16.80;1.00;;;;;;7373755;19;20014;-67
2022/08/09 04:21:44;;;;;;;4.22;2.50;;;16.90;1.00;;;;;;7372054;19;20027;-69
2022/08/09 04:24:16;;;;;;;6.25;2.75;;;16.90;1.00;;;;;;7375130;19;20027;-69
2022/08/09 04:26:46;;;;;;;5.85;2.35;;;16.80;1.00;;;;;;7372593;19;20025;-68
2022/08/09 04:29:17;;;;;;;5.15;2.47;;;16.80;1.00;;;;;;7374221;19;20010;-69
2022/08/09 04:31:47;;;;;;;3.20;1.98;;;16.90;1.00;;;;;;7393819;19;20018;-69
2022/08/09 04:34:18;;;;;;;4.70;2.10;;;17.10;1.00;;;;;;7372929;19;20010;-69
2022/08/09 04:37:03;;;;;;;3.80;2.17;;;18.20;1.00;;;;;;7371508;19;20014;-69
2022/08/09 04:39:33;;;;;;;10.43;2.58;;;19.00;1.00;;;;;;7372444;19;20010;-68
2022/08/09 04:42:09;;;;;;;5.53;2.30;;;19.60;1.00;;;;;;7372350;19;20785;-69
2022/08/09 04:44:44;;;;;;;4.38;2.33;;;20.20;1.00;;;;;;7373150;19;20523;-67
2022/08/09 04:47:18;;;;;;;5.05;2.25;;;20.60;1.00;;;;;;7371533;19;20046;-68
2022/08/09 04:49:48;;;;;;;6.82;2.40;;;20.60;1.00;;;;;;7394843;19;20019;-69
2022/08/09 04:52:29;;;;;;;4.72;2.00;;;20.90;1.00;;;;;;7373198;19;20008;-67
2022/08/09 04:55:01;;;;;;;2.80;1.90;;;21.30;1.00;;;;;;7372757;19;20504;-69
2022/08/09 04:57:33;;;;;;;5.43;2.28;;;21.40;1.00;;;;;;7371175;19;20414;-68
2022/08/09 05:00:23;;;;;;;3.97;2.17;;;21.10;1.00;;;;;;7372643;19;20015;-68
2022/08/09 05:03:00;;;;;;;6.30;2.40;;;22.30;1.00;;;;;;7371917;19;20010;-69
2022/08/09 05:05:50;;;;;;;6.50;2.40;;;22.70;1.00;;;;;;7372003;19;20006;-69
2022/08/09 05:08:38;;;;;;;4.53;2.30;;;22.30;1.00;;;;;;7372290;19;20026;-69
2022/08/09 05:11:12;;;;;;;5.22;2.03;;;23.00;1.00;;;;;;7373042;19;20018;-68
2022/08/09 05:13:44;;;;;;;3.78;2.35;;;23.50;1.00;;;;;;7394302;19;20011;-68
2022/08/09 05:16:14;;;;;;;5.03;2.38;;;23.70;1.00;;;;;;7371180;19;20460;-68
2022/08/09 05:18:47;;;;;;;3.03;2.33;;;23.00;1.00;;;;;;7370971;19;20022;-68
2022/08/09 05:21:28;;;;;;;5.90;2.63;;;22.20;1.00;;;;;;7370375;19;20003;-68
2022/08/09 05:24:01;;;;;;;5.20;2.33;;;23.00;1.00;;;;;;7371259;19;20024;-68
2022/08/09 05:26:34;;;;;;;5.53;2.20;;;22.80;1.00;;;;;;7370126;19;20011;-68
2022/08/09 05:29:18;;;;;;;3.97;2.20;;;22.20;1.00;;;;;;7370719;19;20470;-69
2022/08/09 05:31:58;;;;;;;7.15;2.50;;;22.10;1.00;;;;;;7393633;19;20027;-67
2022/08/09 05:34:29;;;;;;;3.85;2.50;;;21.60;1.00;;;;;;7371373;19;20007;-68
2022/08/09 05:37:02;;;;;;;6.10;2.40;;;21.50;1.00;;;;;;7369502;19;20022;-67
2022/08/09 05:39:40;;;;;;;6.45;2.40;;;21.00;1.00;;;;;;7370794;19;20011;-67
2022/08/09 05:42:14;;;;;;;5.95;2.70;;;20.40;1.00;;;;;;7369898;19;20114;-67
2022/08/09 05:44:51;;;;;;;3.78;2.35;;;20.70;1.00;;;;;;7371016;19;20038;-68
2022/08/09 05:47:25;;;;;;;4.95;2.50;;;20.70;1.00;;;;;;7369532;19;20034;-68
2022/08/09 05:49:59;;;;;;;3.47;2.40;;;20.80;1.00;;;;;;7391937;19;20123;-67
2022/08/09 05:52:49;;;;;;;3.17;2.45;;;20.80;1.00;;;;;;7371917;19;19999;-68
2022/08/09 05:55:26;;;;;;;7.15;3.20;;;20.70;1.00;;;;;;7370575;19;20007;-67
2022/08/09 05:58:02;;;;;;;7.25;2.92;;;20.40;1.00;;;;;;7369498;19;20011;-68
2022/08/09 06:00:36;;;;;;;3.42;2.50;;;20.00;1.00;;;;;;7370888;19;20596;-68
2022/08/09 06:03:08;;;;;;;6.68;2.97;;;19.70;1.00;;;;;;7370190;19;20014;-67
2022/08/09 06:05:42;;;;;;;7.55;3.35;;;19.70;1.00;;;;;;7370780;19;20021;-69
2022/08/09 06:08:31;;;;;;;10.30;3.50;;;19.70;1.00;;;;;;7369732;19;20014;-70
2022/08/09 06:11:05;;;;;;;16.30;3.03;;;19.60;1.00;;;;;;7390096;19;20109;-68
2022/08/09 06:13:47;;;;;;;7.07;2.88;;;19.80;1.00;;;;;;7370096;19;20395;-71
2022/08/09 06:16:16;;;;;;;7.57;2.63;;;20.20;1.00;;;;;;7369046;19;20021;-69
2022/08/09 06:18:46;;;;;;;5.22;2.80;;;20.30;1.00;;;;;;7368965;19;20011;-68
2022/08/09 06:21:17;;;;;;;5.82;2.60;;;20.20;1.00;;;;;;7369616;19;20014;-69
2022/08/09 06:23:51;;;;;;;6.78;2.67;;;20.60;1.00;;;;;;7368782;19;20017;-68
2022/08/09 06:26:33;;;;;;;7.43;3.03;;;21.00;1.00;;;;;;7368089;19;20018;-68
2022/08/09 06:29:03;;;;;;;7.00;2.60;;;20.80;1.00;;;;;;7391720;19;20018;-68
2022/08/09 06:31:34;;;;;;;4.10;2.30;;;21.00;1.00;;;;;;7369880;19;20074;-68
2022/08/09 06:34:25;;;;;;;5.18;2.70;;;21.30;1.00;;;;;;7368878;19;20070;-69
2022/08/09 06:36:59;;;;;;;3.42;2.10;;;21.50;1.00;;;;;;7367561;19;20736;-67
2022/08/09 06:39:31;;;;;;;6.75;2.70;;;21.50;1.00;;;;;;7368534;19;20033;-68
2022/08/09 06:42:24;;;;;;;2.67;2.38;;;21.50;1.00;;;;;;7368794;19;20014;-69
2022/08/09 06:45:00;;;;;;;5.30;2.72;;;21.30;1.00;;;;;;7369633;19;20017;-67
2022/08/09 06:47:50;;;;;;;5.30;2.38;;;21.20;1.00;;;;;;7367351;19;20026;-68
2022/08/09 06:50:36;;;;;;;3.92;2.17;;;21.40;1.00;;;;;;7370044;19;20125;-70
2022/08/09 06:53:10;;;;;;;3.28;2.13;;;21.70;1.00;;;;;;7391814;19;20526;-70
2022/08/09 06:55:41;;;;;;;2.38;2.17;;;21.70;1.00;;;;;;7368974;19;20014;-68
2022/08/09 06:58:19;;;;;;;8.23;2.50;;;21.80;1.00;;;;;;7367296;19;20015;-69
2022/08/09 07:01:09;;;;;;;5.05;2.20;;;22.00;1.00;;;;;;7368423;19;20040;-68
2022/08/09 07:03:40;;;;;;;4.75;2.67;;;22.10;1.00;;;;;;7367617;19;20030;-68
2022/08/09 07:06:22;;;;;;;2.40;2.20;;;22.20;1.00;;;;;;7367781;19;20011;-69
2022/08/09 07:08:58;;;;;;;6.15;2.50;;;22.20;1.00;;;;;;7368874;19;20586;-68
2022/08/09 07:11:28;;;;;;;5.22;2.42;;;22.10;1.00;;;;;;7369673;19;20542;-69
2022/08/09 07:14:20;;;;;;;4.85;2.20;;;22.20;1.00;;;;;;7369161;19;20080;-68
2022/08/09 07:16:56;;;;;;;8.00;2.60;;;22.40;1.00;;;;;;7388540;19;20078;-68
2022/08/09 07:19:27;;;;;;;5.65;2.50;;;22.00;1.00;;;;;;7366528;19;20105;-69
2022/08/09 07:21:57;;;;;;;4.40;2.55;;;22.60;1.00;;;;;;7365809;19;20031;-67
2022/08/09 07:24:30;;;;;;;5.10;2.42;;;22.30;1.00;;;;;;7367061;19;20040;-69
2022/08/09 07:27:10;;;;;;;4.32;2.38;;;22.60;1.00;;;;;;7366706;19;20006;-69
2022/08/09 07:29:58;;;;;;;5.25;2.70;;;22.80;1.00;;;;;;7366973;19;20014;-69
2022/08/09 07:32:29;;;;;;;3.42;2.70;;;22.80;1.00;;;;;;7367581;19;20027;-69
2022/08/09 07:35:03;;;;;;;4.97;2.55;;;23.30;1.00;;;;;;7388918;19;20461;-68
2022/08/09 07:37:39;;;;;;;6.18;2.33;;;23.40;1.00;;;;;;7365495;19;20014;-69
2022/08/09 07:40:15;;;;;;;4.75;2.08;;;23.50;1.00;;;;;;7368327;19;20088;-69
2022/08/09 07:42:50;;;;;;;8.05;2.95;;;23.40;1.00;;;;;;7367226;19;20003;-67
2022/08/09 07:45:29;;;;;;;;;;;23.40;1.00;;;;;;7368642;19;20753;-68
2022/08/09 07:48:10;;;;;;;5.35;2.60;;;23.40;1.00;;;;;;7367035;19;19947;-68
2022/08/09 07:51:01;;;;;;;3.83;2.38;;;23.30;1.00;;;;;;7368002;19;20098;-68
2022/08/09 07:53:53;;;;;;;3.25;2.40;;;23.30;1.00;;;;;;7366625;19;20103;-68
2022/08/09 07:56:37;;;;;;;11.45;2.92;;;23.60;1.00;;;;;;7366871;19;20043;-68
2022/08/09 07:59:19;;;;;;;6.65;2.80;;;23.50;1.00;;;;;;7368157;19;20020;-68
2022/08/09 08:02:11;;;;;;;6.93;2.25;;;23.50;1.00;;;;;;7379373;19;20010;-68
2022/08/09 08:04:48;;;;;;;3.60;2.38;;;23.90;1.00;;;;;;7386500;19;20021;-68
2022/08/09 08:07:22;;;;;;;4.88;2.47;;;24.00;1.00;;;;;;7364892;19;20474;-68
2022/08/09 08:10:12;;;;;;;5.18;2.45;;;24.00;1.00;;;;;;7366675;19;20006;-68
2022/08/09 08:12:44;;;;;;;6.15;2.60;;;24.20;1.00;;;;;;7366107;19;20324;-69
2022/08/09 08:15:17;;;;;;;3.97;2.00;;;24.20;1.00;;;;;;7365516;19;20013;-68
2022/08/09 08:17:55;;;;;;;5.88;2.20;;;24.00;1.00;;;;;;7365556;19;20414;-68
2022/08/09 08:20:29;;;;;;;2.75;2.25;;;24.60;1.00;;;;;;7365986;19;20011;-68
2022/08/09 08:23:03;;;;;;;2.85;2.13;;;24.40;1.00;;;;;;7389151;19;20011;-68
2022/08/09 08:25:47;;;;;;;3.85;2.17;;;24.30;1.00;;;;;;7366631;19;20021;-69
2022/08/09 08:28:23;;;;;;;4.65;2.20;;;24.40;1.00;;;;;;7365942;19;20017;-68
2022/08/09 08:31:01;;;;;;;2.60;1.95;;;24.50;1.00;;;;;;7366000;19;20014;-68
2022/08/09 08:33:46;;;;;;;2.67;1.83;;;25.00;1.00;;;;;;7365050;19;20391;-70
2022/08/09 08:36:24;;;;;;;4.10;2.40;;;25.00;1.00;;;;;;7372420;19;20017;-69
2022/08/09 08:38:58;;;;;;;5.40;2.00;;;24.70;1.00;;;;;;7372630;19;20087;-68
2022/08/09 08:41:30;;;;;;;4.35;2.20;;;24.90;1.00;;;;;;7373104;19;20371;-69
2022/08/09 08:44:23;;;;;;;2.47;2.28;;;24.90;1.00;;;;;;7371153;19;20015;-69
2022/08/09 08:46:58;;;;;;;2.92;2.00;;;25.00;1.00;;;;;;7391764;19;20026;-68
2022/08/09 08:49:44;;;;;;;4.33;2.10;;;25.30;1.00;;;;;;7372474;19;20010;-69
2022/08/09 08:52:19;;;;;;;4.22;2.35;;;25.40;1.00;;;;;;7371765;19;20022;-68
2022/08/09 08:55:10;;;;;;;2.47;2.05;;;25.40;1.00;;;;;;7370878;19;20006;-68
2022/08/09 08:57:44;;;;;;;3.65;2.15;;;25.40;1.00;;;;;;7370575;19;20043;-68
2022/08/09 09:00:30;;;;;;;2.17;1.80;;;26.00;1.00;;;;;;7371832;19;20010;-68
2022/08/09 09:03:05;;;;;;;2.20;2.00;;;26.10;1.00;;;;;;7371331;19;20034;-68
2022/08/09 09:05:44;;;;;;;3.47;2.00;;;26.40;1.00;;;;;;7372351;19;20022;-69
2022/08/09 09:08:36;;;;;;;2.58;1.90;;;26.10;1.00;;;;;;7371786;19;20014;-69
2022/08/09 09:11:12;;;;;;;5.97;1.90;;;25.80;1.00;;;;;;7371468;19;20006;-69
2022/08/09 09:13:50;;;;;;;6.47;2.03;;;25.50;1.00;;;;;;7391009;19;20022;-68
2022/08/09 09:16:29;;;;;;;3.15;2.20;;;26.00;1.00;;;;;;7369687;19;20497;-68
2022/08/09 09:19:03;;;;;;;2.28;2.08;;;25.90;1.00;;;;;;7370572;19;19998;-68
2022/08/09 09:22:07;;;;;;;3.38;1.92;;;26.10;1.00;;;;;;7370452;19;20022;-70
2022/08/09 09:24:43;;;;;;;2.15;1.95;;;26.40;1.00;;;;;;7368836;19;20484;-68
2022/08/09 09:27:15;;;;;;;3.60;1.90;;;26.40;1.00;;;;;;7368275;19;20134;-68
2022/08/09 09:30:13;;;;;;;5.22;1.92;;;26.70;1.00;;;;;;7370128;19;20353;-69
2022/08/09 09:33:11;;;;;;;3.25;1.90;;;26.80;1.00;;;;;;7369710;19;20018;-68
2022/08/09 09:35:56;;;;;;;5.22;2.03;;;26.70;1.00;;;;;;7371426;19;20057;-74
2022/08/09 09:38:46;;;;;;;3.85;1.83;;;26.60;1.00;;;;;;7370745;19;20765;-72
2022/08/09 09:41:31;;;;;;;2.50;1.85;;;27.20;1.00;;;;;;7369683;19;20032;-73
2022/08/09 09:44:27;;;;;;;3.13;2.10;;;27.10;1.00;;;;;;7368724;19;20084;-72
2022/08/09 09:47:08;;;;;;;3.10;1.77;;;27.00;1.00;;;;;;7389752;19;20026;-72
2022/08/09 09:49:40;;;;;;;3.10;1.67;;;27.30;1.00;;;;;;7370362;19;20017;-73
2022/08/09 09:52:30;;;;;;;5.35;1.75;;;27.20;1.00;;;;;;7369235;19;20048;-71
2022/08/09 09:55:14;;;;;;;2.78;1.40;;;27.40;1.00;;;;;;7368661;19;20043;-72
2022/08/09 09:57:59;;;;;;;2.97;1.60;;;27.10;1.00;;;;;;7369270;19;20006;-72
2022/08/09 10:00:49;;;;;;;1.95;1.48;;;27.10;1.00;;;;;;7369873;19;20478;-73
2022/08/09 10:03:44;;;;;;;2.53;1.77;;;27.20;1.00;;;;;;7370746;19;20015;-75
2022/08/09 10:06:29;;;;;;;4.57;1.63;;;27.40;1.00;;;;;;7368319;19;20003;-75
2022/08/09 10:09:03;;;;;;;9.25;1.60;;;27.40;1.00;;;;;;7368566;19;20130;-76
2022/08/09 10:11:58;;;;;;;1.95;1.65;;;26.90;1.00;;;;;;7368651;19;20011;-75
2022/08/09 10:15:05;;;;;;;1.95;1.50;;;27.00;1.00;;;;;;7367957;19;20338;-75
2022/08/09 10:17:49;;;;;;;4.80;1.77;;;27.30;1.00;;;;;;7367071;19;20022;-75
2022/08/09 10:20:29;;;;;;;3.85;1.67;;;27.40;1.00;;;;;;7367565;19;20404;-74
2022/08/09 10:23:14;;;;;;;3.35;1.70;;;27.30;1.00;;;;;;7390778;19;20467;-75
2022/08/09 10:25:47;;;;;;;4.75;2.08;;;27.60;1.00;;;;;;7361110;19;20478;-75
2022/08/09 10:28:41;;;;;;;3.75;1.75;;;27.40;1.00;;;;;;7358459;19;20019;-75
2022/08/09 10:31:27;;;;;;;3.05;1.77;;;27.50;1.00;;;;;;7358732;19;20017;-75
2022/08/09 10:34:19;;;;;;;4.07;1.80;;;27.50;1.00;;;;;;7359372;19;20038;-76
2022/08/09 10:37:04;;;;;;;1.80;1.70;;;27.60;1.00;;;;;;7357174;19;20022;-73
2022/08/09 10:39:39;;;;;;;3.00;1.80;;;27.60;1.00;;;;;;7355196;19;20538;-76
2022/08/09 10:42:18;;;;;;;1.77;1.58;;;27.60;1.00;;;;;;7359098;19;20014;-76
2022/08/09 10:44:55;;;;;;;4.78;1.73;;;27.50;1.00;;;;;;7360718;19;20085;-76
2022/08/09 10:47:42;;;;;;;2.67;1.65;;;27.50;1.00;;;;;;7357635;19;20078;-75
2022/08/09 10:53:29;;;;;;;2.58;1.65;;;28.00;1.00;;;;;;7359012;19;20579;-76
2022/08/09 10:56:22;;;;;;;1.80;1.60;;;27.40;1.00;;;;;;7376111;19;20417;-77
2022/08/09 10:58:55;;;;;;;2.60;1.80;;;27.60;1.00;;;;;;7343464;19;20025;-75
2022/08/09 11:01:49;;;;;;;4.03;1.70;;;27.90;1.00;;;;;;7359315;19;20034;-75
2022/08/09 11:04:40;;;;;;;2.60;1.70;;;27.70;1.00;;;;;;7352439;19;20607;-69
2022/08/09 11:07:30;;;;;;;2.25;1.50;;;27.90;1.00;;;;;;7354307;19;20014;-68
2022/08/09 11:10:54;;;;;;;4.35;1.42;;;28.00;1.00;;;;;;7356990;19;20082;-68
2022/08/09 11:13:37;;;;;;;2.35;1.70;;;28.00;1.00;;;;;;7355584;19;20590;-76
2022/08/09 11:16:38;;;;;;;1.77;1.50;;;28.20;1.00;;;;;;7352745;19;20616;-76
2022/08/09 11:19:12;;;;;;;3.95;1.60;;;28.30;1.00;;;;;;7344048;19;20094;-74
2022/08/09 11:21:53;;;;;;;6.18;1.73;;;28.30;1.00;;;;;;7362517;19;20110;-75
2022/08/09 11:24:27;;;;;;;3.40;1.73;;;28.20;1.00;;;;;;7357488;19;20014;-75
2022/08/09 11:26:58;;;;;;;3.35;1.58;;;28.20;1.00;;;;;;7355928;19;20076;-74
2022/08/09 11:29:57;;;;;;;3.17;1.60;;;28.70;1.00;;;;;;7346872;19;20018;-75
2022/08/09 11:32:49;;;;;;;2.83;1.60;;;28.10;1.00;;;;;;7359070;19;20014;-75
2022/08/09 11:35:39;;;;;;;4.95;1.63;;;28.30;1.00;;;;;;7358487;19;20011;-76
2022/08/09 11:38:22;;;;;;;2.95;1.60;;;28.60;1.00;;;;;;7346712;19;20015;-75
2022/08/09 11:41:07;;;;;;;2.55;1.55;;;28.40;1.00;;;;;;7379622;19;20494;-74
2022/08/09 11:43:44;;;;;;;2.80;1.60;;;28.30;1.00;;;;;;7357810;19;20844;-75
2022/08/09 11:46:14;;;;;;;5.30;1.50;;;28.40;1.00;;;;;;7354088;19;20018;-74
2022/08/09 11:49:02;;;;;;;4.63;1.50;;;28.50;1.00;;;;;;7343244;19;20026;-75
2022/08/09 11:52:03;;;;;;;1.88;1.23;;;28.50;1.00;;;;;;7361275;19;20027;-75
2022/08/09 11:55:23;;;;;;;2.40;1.27;;;28.40;1.00;;;;;;7353918;19;20017;-74
2022/08/09 11:58:43;;;;;;;3.08;1.23;;;28.20;1.00;;;;;;7342178;19;20021;-74
2022/08/09 12:01:21;;;;;;;3.40;1.45;;;28.60;1.00;;;;;;7356852;19;20011;-75
2022/08/09 12:04:13;;;;;;;2.25;1.60;;;29.00;1.00;;;;;;7355319;19;20010;-75
2022/08/09 12:07:00;;;;;;;2.08;1.65;;;28.80;1.00;;;;;;7351842;19;20011;-75
2022/08/09 12:09:34;;;;;;;3.35;1.60;;;28.40;1.00;;;;;;7349240;19;20015;-75
2022/08/09 12:12:09;;;;;;;2.72;1.50;;;28.40;1.00;;;;;;7366886;19;20011;-76
2022/08/09 12:14:48;;;;;;;4.68;1.38;;;28.40;1.00;;;;;;7363430;19;20033;-75
2022/08/09 12:17:38;;;;;;;3.70;1.30;;;28.50;1.00;;;;;;7357334;19;20036;-75
2022/08/09 12:20:17;;;;;;;1.73;1.20;;;28.70;1.00;;;;;;7363049;19;20452;-75
2022/08/09 12:22:55;;;;;;;1.67;1.13;;;28.60;1.00;;;;;;7388939;19;20025;-76
2022/08/09 12:25:31;;;;;;;5.18;1.50;;;28.70;1.00;;;;;;7362453;19;20033;-75
2022/08/09 12:28:11;;;;;;;2.25;1.48;;;29.00;1.00;;;;;;7352151;19;20569;-76
2022/08/09 12:31:01;;;;;;;2.80;1.30;;;28.90;1.00;;;;;;7365269;19;20015;-75
2022/08/09 12:33:52;;;;;;;3.22;1.45;;;28.90;1.00;;;;;;7363702;19;20367;-71
2022/08/09 12:36:31;;;;;;;1.77;1.25;;;28.90;1.00;;;;;;7361872;19;20010;-72
2022/08/09 12:39:15;;;;;;;1.80;1.30;;;29.00;1.00;;;;;;7350741;19;20094;-72
2022/08/09 12:41:46;;;;;;;2.58;1.23;;;29.10;1.00;;;;;;7366848;19;20063;-72
2022/08/09 12:44:21;;;;;;;1.30;1.20;;;28.90;1.00;;;;;;7362720;19;20025;-74
2022/08/09 12:47:06;;;;;;;4.72;1.65;;;29.10;1.00;;;;;;7378267;19;20036;-72
2022/08/09 12:49:39;;;;;;;5.20;1.40;;;29.20;1.00;;;;;;7349832;19;20073;-73
2022/08/09 12:52:21;;;;;;;;;;;29.10;1.00;;;;;;7366883;19;20006;-73
2022/08/09 12:55:25;;;;;;;3.38;1.48;;;29.40;1.00;;;;;;7362266;19;19954;-71
2022/08/09 12:58:15;;;;;;;2.42;1.33;;;29.50;1.00;;;;;;7344258;19;20480;-73
2022/08/09 13:00:56;;;;;;;2.78;1.55;;;29.20;1.00;;;;;;7365790;19;20010;-72
2022/08/09 13:03:31;;;;;;;2.03;1.40;;;29.00;1.00;;;;;;7359625;19;20525;-72
2022/08/09 13:06:28;;;;;;;4.18;1.30;;;29.20;1.00;;;;;;7361505;19;20007;-72
2022/08/09 13:09:09;;;;;;;3.35;1.38;;;29.20;1.00;;;;;;7348901;19;20127;-70
2022/08/09 13:11:45;;;;;;;3.80;1.48;;;29.20;1.00;;;;;;7366024;19;20019;-72
2022/08/09 13:14:17;;;;;;;5.22;1.20;;;29.30;1.00;;;;;;7363570;19;20074;-71
2022/08/09 13:17:15;;;;;;;2.10;1.27;;;29.20;1.00;;;;;;7381168;19;20534;-70
2022/08/09 13:20:08;;;;;;;1.40;1.20;;;29.20;1.00;;;;;;7251739;19;2005410;-66
2022/08/09 13:22:51;;;;;;;2.60;1.40;;;29.50;1.00;;;;;;7389626;19;20012;-67
2022/08/09 13:25:40;;;;;;;1.58;1.30;;;29.50;1.00;;;;;;7363100;19;20018;-67
2022/08/09 13:28:16;;;;;;;4.57;1.40;;;29.40;1.00;;;;;;7347415;19;20022;-65
2022/08/09 13:31:08;;;;;;;5.80;1.35;;;29.70;1.00;;;;;;7362827;19;20018;-66
2022/08/09 13:33:58;;;;;;;3.75;1.40;;;29.50;1.00;;;;;;7357919;19;20466;-66
2022/08/09 13:36:28;;;;;;;2.55;1.40;;;29.50;1.00;;;;;;7362816;19;20025;-68
2022/08/09 13:39:12;;;;;;;4.13;1.50;;;29.40;1.00;;;;;;7344487;19;20011;-67
2022/08/09 13:42:03;;;;;;;4.28;1.30;;;29.30;1.00;;;;;;7363582;19;20370;-68
2022/08/09 13:44:37;;;;;;;3.22;1.13;;;29.50;1.00;;;;;;7362322;19;20031;-67
2022/08/09 13:47:11;;;;;;;3.75;1.33;;;29.40;1.00;;;;;;7357961;19;20504;-67
2022/08/09 13:50:01;;;;;;;2.35;1.15;;;29.70;1.00;;;;;;7368173;19;20020;-67
2022/08/09 13:52:37;;;;;;;2.17;1.10;;;29.90;1.00;;;;;;7365649;19;20007;-67
2022/08/09 13:55:09;;;;;;;2.22;1.10;;;29.80;1.00;;;;;;7359157;19;20090;-67
2022/08/09 13:57:46;;;;;;;3.10;1.15;;;29.40;1.00;;;;;;7353673;19;20473;-68
2022/08/09 14:00:28;;;;;;;1.83;1.30;;;29.70;1.00;;;;;;7361962;19;20038;-67
2022/08/09 14:02:59;;;;;;;6.25;1.30;;;29.90;1.00;;;;;;7362216;19;20021;-67
2022/08/09 14:05:46;;;;;;;3.40;1.40;;;29.70;1.00;;;;;;7363211;19;20086;-67
2022/08/09 14:08:31;;;;;;;6.13;1.40;;;30.00;1.00;;;;;;7338582;19;20079;-67
2022/08/09 14:11:01;;;;;;;4.43;1.40;;;29.90;1.00;;;;;;7383619;19;20090;-69
2022/08/09 14:13:38;;;;;;;2.88;1.30;;;30.00;1.00;;;;;;7361908;19;20018;-67